sensor_id;sensor_type;location;lat;lon;timestamp;temperature;humidity
19037;DHT22;9651;49.138;8.900;2023-02-02T00:03:56;6.20;99.90
19037;DHT22;9651;49.138;8.900;2023-02-02T00:07:58;6.20;99.90
19037;DHT22;9651;49.138;8.900;2023-02-02T00:12:01;6.20;99.90
19037;DHT22;9651;49.138;8.900;2023-02-02T00:16:38;6.10;99.90
19037;DHT22;9651;49.138;8.900;2023-02-02T00:20:40;6.10;99.90
19037;DHT22;9651;49.138;8.900;2023-02-02T00:24:42;5.90;99.90
19037;DHT22;9651;49.138;8.900;2023-02-02T00:28:45;6.00;99.90
19037;DHT22;9651;49.138;8.900;2023-02-02T00:32:47;5.90;99.90
19037;DHT22;9651;49.138;8.900;2023-02-02T00:36:51;5.90;99.90
19037;DHT22;9651;49.138;8.900;2023-02-02T00:40:53;5.90;99.90
19037;DHT22;9651;49.138;8.900;2023-02-02T00:44:57;5.80;99.90
19037;DHT22;9651;49.138;8.900;2023-02-02T00:49:17;5.80;99.90
19037;DHT22;9651;49.138;8.900;2023-02-02T00:53:19;5.70;99.90
19037;DHT22;9651;49.138;8.900;2023-02-02T00:57:21;5.70;99.90
19037;DHT22;9651;49.138;8.900;2023-02-02T01:01:24;5.70;99.90
19037;DHT22;9651;49.138;8.900;2023-02-02T01:05:26;5.70;99.90
19037;DHT22;9651;49.138;8.900;2023-02-02T01:09:28;5.60;99.90
19037;DHT22;9651;49.138;8.900;2023-02-02T01:13:30;5.60;99.90
19037;DHT22;9651;49.138;8.900;2023-02-02T01:17:33;5.70;99.90
19037;DHT22;9651;49.138;8.900;2023-02-02T01:21:35;5.70;99.90
19037;DHT22;9651;49.138;8.900;2023-02-02T01:25:37;5.70;99.90
19037;DHT22;9651;49.138;8.900;2023-02-02T01:29:39;5.70;99.90
19037;DHT22;9651;49.138;8.900;2023-02-02T01:33:43;5.70;99.90
19037;DHT22;9651;49.138;8.900;2023-02-02T01:37:45;5.70;99.90
19037;DHT22;9651;49.138;8.900;2023-02-02T01:41:47;5.70;99.90
19037;DHT22;9651;49.138;8.900;2023-02-02T01:45:49;5.60;99.90
19037;DHT22;9651;49.138;8.900;2023-02-02T01:49:54;5.60;99.90
19037;DHT22;9651;49.138;8.900;2023-02-02T01:53:57;5.60;99.90
19037;DHT22;9651;49.138;8.900;2023-02-02T01:58:04;5.60;99.90
19037;DHT22;9651;49.138;8.900;2023-02-02T02:02:06;5.70;99.90
19037;DHT22;9651;49.138;8.900;2023-02-02T02:06:13;5.60;99.90
19037;DHT22;9651;49.138;8.900;2023-02-02T02:10:16;5.60;99.90
19037;DHT22;9651;49.138;8.900;2023-02-02T02:14:18;5.60;99.90
19037;DHT22;9651;49.138;8.900;2023-02-02T02:18:45;5.50;99.90
19037;DHT22;9651;49.138;8.900;2023-02-02T02:23:09;5.50;99.90
19037;DHT22;9651;49.138;8.900;2023-02-02T02:32:17;5.50;99.90
19037;DHT22;9651;49.138;8.900;2023-02-02T02:36:29;5.50;99.90
19037;DHT22;9651;49.138;8.900;2023-02-02T02:40:36;5.50;99.90
19037;DHT22;9651;49.138;8.900;2023-02-02T02:44:39;5.60;99.90
19037;DHT22;9651;49.138;8.900;2023-02-02T02:48:44;5.50;99.90
19037;DHT22;9651;49.138;8.900;2023-02-02T02:52:58;5.60;99.90
19037;DHT22;9651;49.138;8.900;2023-02-02T02:57:17;5.60;99.90
19037;DHT22;9651;49.138;8.900;2023-02-02T03:01:28;5.60;99.90
19037;DHT22;9651;49.138;8.900;2023-02-02T03:05:39;5.60;99.90
19037;DHT22;9651;49.138;8.900;2023-02-02T03:09:43;5.50;99.90
19037;DHT22;9651;49.138;8.900;2023-02-02T03:13:47;5.50;99.90
19037;DHT22;9651;49.138;8.900;2023-02-02T03:17:50;5.60;99.90
19037;DHT22;9651;49.138;8.900;2023-02-02T03:21:54;5.50;99.90
19037;DHT22;9651;49.138;8.900;2023-02-02T03:25:56;5.50;99.90
19037;DHT22;9651;49.138;8.900;2023-02-02T03:29:59;5.60;99.90
19037;DHT22;9651;49.138;8.900;2023-02-02T03:34:01;5.60;99.90
19037;DHT22;9651;49.138;8.900;2023-02-02T03:38:04;5.70;99.90
19037;DHT22;9651;49.138;8.900;2023-02-02T03:42:06;5.70;99.90
19037;DHT22;9651;49.138;8.900;2023-02-02T03:46:07;5.60;99.90
19037;DHT22;9651;49.138;8.900;2023-02-02T03:50:10;5.60;99.90
19037;DHT22;9651;49.138;8.900;2023-02-02T03:54:13;5.70;99.90
19037;DHT22;9651;49.138;8.900;2023-02-02T03:58:15;5.60;99.90
19037;DHT22;9651;49.138;8.900;2023-02-02T04:02:18;5.60;99.90
19037;DHT22;9651;49.138;8.900;2023-02-02T04:06:19;5.60;99.90
19037;DHT22;9651;49.138;8.900;2023-02-02T04:10:23;5.60;99.90
19037;DHT22;9651;49.138;8.900;2023-02-02T04:14:24;5.70;99.90
19037;DHT22;9651;49.138;8.900;2023-02-02T04:18:26;5.70;99.90
19037;DHT22;9651;49.138;8.900;2023-02-02T04:22:28;5.80;99.90
19037;DHT22;9651;49.138;8.900;2023-02-02T04:26:31;5.80;99.90
19037;DHT22;9651;49.138;8.900;2023-02-02T04:30:33;5.80;99.90
19037;DHT22;9651;49.138;8.900;2023-02-02T04:34:35;5.80;99.90
19037;DHT22;9651;49.138;8.900;2023-02-02T04:38:37;5.80;99.90
19037;DHT22;9651;49.138;8.900;2023-02-02T04:42:40;5.80;99.90
19037;DHT22;9651;49.138;8.900;2023-02-02T04:46:42;5.90;99.90
19037;DHT22;9651;49.138;8.900;2023-02-02T04:50:44;5.90;99.90
19037;DHT22;9651;49.138;8.900;2023-02-02T04:54:46;5.90;99.90
19037;DHT22;9651;49.138;8.900;2023-02-02T04:58:52;5.90;99.90
19037;DHT22;9651;49.138;8.900;2023-02-02T05:02:55;5.90;99.90
19037;DHT22;9651;49.138;8.900;2023-02-02T05:06:57;5.90;99.90
19037;DHT22;9651;49.138;8.900;2023-02-02T05:10:59;5.90;99.90
19037;DHT22;9651;49.138;8.900;2023-02-02T05:15:02;5.90;99.90
19037;DHT22;9651;49.138;8.900;2023-02-02T05:19:05;5.90;99.90
19037;DHT22;9651;49.138;8.900;2023-02-02T05:23:06;6.00;99.90
19037;DHT22;9651;49.138;8.900;2023-02-02T05:27:08;6.00;99.90
19037;DHT22;9651;49.138;8.900;2023-02-02T05:31:11;6.10;99.90
19037;DHT22;9651;49.138;8.900;2023-02-02T05:35:13;6.10;99.90
19037;DHT22;9651;49.138;8.900;2023-02-02T05:39:15;6.00;99.90
19037;DHT22;9651;49.138;8.900;2023-02-02T05:43:17;6.00;99.90
19037;DHT22;9651;49.138;8.900;2023-02-02T05:47:20;6.00;99.90
19037;DHT22;9651;49.138;8.900;2023-02-02T05:51:24;6.00;99.90
19037;DHT22;9651;49.138;8.900;2023-02-02T05:55:27;6.00;99.90
19037;DHT22;9651;49.138;8.900;2023-02-02T05:59:29;6.00;99.90
19037;DHT22;9651;49.138;8.900;2023-02-02T06:03:32;6.00;99.90
19037;DHT22;9651;49.138;8.900;2023-02-02T06:07:34;5.90;99.90
19037;DHT22;9651;49.138;8.900;2023-02-02T06:11:36;6.00;99.90
19037;DHT22;9651;49.138;8.900;2023-02-02T06:15:38;5.90;99.90
19037;DHT22;9651;49.138;8.900;2023-02-02T06:19:43;5.90;99.90
19037;DHT22;9651;49.138;8.900;2023-02-02T06:23:45;5.90;99.90
19037;DHT22;9651;49.138;8.900;2023-02-02T06:27:47;5.90;99.90
19037;DHT22;9651;49.138;8.900;2023-02-02T06:31:49;5.90;99.90
19037;DHT22;9651;49.138;8.900;2023-02-02T06:35:52;5.90;99.90
19037;DHT22;9651;49.138;8.900;2023-02-02T06:39:59;5.90;99.90
19037;DHT22;9651;49.138;8.900;2023-02-02T06:44:01;5.90;99.90
19037;DHT22;9651;49.138;8.900;2023-02-02T06:48:03;5.90;99.90
19037;DHT22;9651;49.138;8.900;2023-02-02T06:52:11;5.90;99.90
19037;DHT22;9651;49.138;8.900;2023-02-02T06:56:13;5.90;99.90
19037;DHT22;9651;49.138;8.900;2023-02-02T07:00:16;5.90;99.90
19037;DHT22;9651;49.138;8.900;2023-02-02T07:04:18;5.90;99.90
19037;DHT22;9651;49.138;8.900;2023-02-02T07:08:22;6.00;99.90
19037;DHT22;9651;49.138;8.900;2023-02-02T07:12:24;6.00;99.90
19037;DHT22;9651;49.138;8.900;2023-02-02T07:16:27;6.00;99.90
19037;DHT22;9651;49.138;8.900;2023-02-02T07:20:29;6.10;99.90
19037;DHT22;9651;49.138;8.900;2023-02-02T07:24:32;6.00;99.90
19037;DHT22;9651;49.138;8.900;2023-02-02T07:28:34;6.10;99.90
19037;DHT22;9651;49.138;8.900;2023-02-02T07:32:36;6.10;99.90
19037;DHT22;9651;49.138;8.900;2023-02-02T07:36:38;6.20;99.90
19037;DHT22;9651;49.138;8.900;2023-02-02T07:40:41;6.20;99.90
19037;DHT22;9651;49.138;8.900;2023-02-02T07:44:43;6.20;99.90
19037;DHT22;9651;49.138;8.900;2023-02-02T07:48:45;6.20;99.90
19037;DHT22;9651;49.138;8.900;2023-02-02T07:52:47;6.20;99.90
19037;DHT22;9651;49.138;8.900;2023-02-02T07:56:51;6.20;99.90
19037;DHT22;9651;49.138;8.900;2023-02-02T08:00:52;6.30;99.90
19037;DHT22;9651;49.138;8.900;2023-02-02T08:04:54;6.30;99.90
19037;DHT22;9651;49.138;8.900;2023-02-02T08:08:56;6.20;99.90
19037;DHT22;9651;49.138;8.900;2023-02-02T08:13:00;6.20;99.90
19037;DHT22;9651;49.138;8.900;2023-02-02T08:17:02;6.20;99.90
19037;DHT22;9651;49.138;8.900;2023-02-02T08:21:06;6.20;99.90
19037;DHT22;9651;49.138;8.900;2023-02-02T08:25:09;6.20;99.90
19037;DHT22;9651;49.138;8.900;2023-02-02T08:29:12;6.20;99.90
19037;DHT22;9651;49.138;8.900;2023-02-02T08:33:16;6.10;99.90
19037;DHT22;9651;49.138;8.900;2023-02-02T08:37:18;6.10;99.90
19037;DHT22;9651;49.138;8.900;2023-02-02T08:41:22;6.20;99.90
19037;DHT22;9651;49.138;8.900;2023-02-02T08:45:25;6.30;99.90
19037;DHT22;9651;49.138;8.900;2023-02-02T08:49:27;6.30;99.90
19037;DHT22;9651;49.138;8.900;2023-02-02T08:53:29;6.30;99.90
19037;DHT22;9651;49.138;8.900;2023-02-02T08:57:31;6.30;99.90
19037;DHT22;9651;49.138;8.900;2023-02-02T09:01:35;6.30;99.90
19037;DHT22;9651;49.138;8.900;2023-02-02T09:05:37;6.30;99.90
19037;DHT22;9651;49.138;8.900;2023-02-02T09:09:39;6.40;99.90
19037;DHT22;9651;49.138;8.900;2023-02-02T09:13:42;6.50;99.90
19037;DHT22;9651;49.138;8.900;2023-02-02T09:17:46;6.60;99.90
19037;DHT22;9651;49.138;8.900;2023-02-02T09:21:48;6.60;99.90
19037;DHT22;9651;49.138;8.900;2023-02-02T09:25:50;6.70;99.90
19037;DHT22;9651;49.138;8.900;2023-02-02T09:29:52;6.70;99.90
19037;DHT22;9651;49.138;8.900;2023-02-02T09:33:59;6.80;99.90
19037;DHT22;9651;49.138;8.900;2023-02-02T09:38:01;6.80;99.90
19037;DHT22;9651;49.138;8.900;2023-02-02T09:42:26;6.90;99.90
19037;DHT22;9651;49.138;8.900;2023-02-02T09:46:41;6.90;99.90
19037;DHT22;9651;49.138;8.900;2023-02-02T09:50:50;7.00;99.90
19037;DHT22;9651;49.138;8.900;2023-02-02T09:54:57;7.00;99.90
19037;DHT22;9651;49.138;8.900;2023-02-02T09:59:00;7.00;99.90
19037;DHT22;9651;49.138;8.900;2023-02-02T10:03:06;7.00;99.90
19037;DHT22;9651;49.138;8.900;2023-02-02T10:07:15;7.20;99.90
19037;DHT22;9651;49.138;8.900;2023-02-02T10:11:27;7.20;99.90
19037;DHT22;9651;49.138;8.900;2023-02-02T10:15:37;7.30;99.90
19037;DHT22;9651;49.138;8.900;2023-02-02T10:19:40;7.40;99.90
19037;DHT22;9651;49.138;8.900;2023-02-02T10:23:44;7.50;99.90
19037;DHT22;9651;49.138;8.900;2023-02-02T10:28:03;7.70;99.90
19037;DHT22;9651;49.138;8.900;2023-02-02T10:32:13;7.70;99.90
19037;DHT22;9651;49.138;8.900;2023-02-02T10:36:27;7.70;99.90
19037;DHT22;9651;49.138;8.900;2023-02-02T10:40:41;7.80;99.90
19037;DHT22;9651;49.138;8.900;2023-02-02T10:44:48;7.90;99.90
19037;DHT22;9651;49.138;8.900;2023-02-02T10:49:08;8.10;99.90
19037;DHT22;9651;49.138;8.900;2023-02-02T10:53:13;8.00;99.90
19037;DHT22;9651;49.138;8.900;2023-02-02T10:57:23;7.90;99.90
19037;DHT22;9651;49.138;8.900;2023-02-02T11:01:27;7.80;99.90
19037;DHT22;9651;49.138;8.900;2023-02-02T11:05:30;7.60;99.90
19037;DHT22;9651;49.138;8.900;2023-02-02T11:09:49;7.50;99.90
19037;DHT22;9651;49.138;8.900;2023-02-02T11:13:56;7.50;99.90
19037;DHT22;9651;49.138;8.900;2023-02-02T11:18:12;7.40;99.90
19037;DHT22;9651;49.138;8.900;2023-02-02T11:22:28;7.30;99.90
19037;DHT22;9651;49.138;8.900;2023-02-02T11:26:41;7.10;99.90
19037;DHT22;9651;49.138;8.900;2023-02-02T11:30:48;7.10;99.90
19037;DHT22;9651;49.138;8.900;2023-02-02T11:35:14;7.10;99.90
19037;DHT22;9651;49.138;8.900;2023-02-02T11:39:19;7.00;99.90
19037;DHT22;9651;49.138;8.900;2023-02-02T11:43:25;7.00;99.90
19037;DHT22;9651;49.138;8.900;2023-02-02T11:47:31;6.90;99.90
19037;DHT22;9651;49.138;8.900;2023-02-02T11:51:34;6.90;99.90
19037;DHT22;9651;49.138;8.900;2023-02-02T11:55:35;7.00;99.90
19037;DHT22;9651;49.138;8.900;2023-02-02T11:59:39;7.00;99.90
19037;DHT22;9651;49.138;8.900;2023-02-02T12:03:47;7.00;99.90
19037;DHT22;9651;49.138;8.900;2023-02-02T12:07:49;7.10;99.90
19037;DHT22;9651;49.138;8.900;2023-02-02T12:11:56;7.00;99.90
19037;DHT22;9651;49.138;8.900;2023-02-02T12:16:13;6.90;99.90
19037;DHT22;9651;49.138;8.900;2023-02-02T12:20:29;6.90;99.90
19037;DHT22;9651;49.138;8.900;2023-02-02T12:24:34;6.90;99.90
19037;DHT22;9651;49.138;8.900;2023-02-02T12:28:53;6.90;99.90
19037;DHT22;9651;49.138;8.900;2023-02-02T12:33:12;6.90;99.90
19037;DHT22;9651;49.138;8.900;2023-02-02T12:37:29;6.90;99.90
19037;DHT22;9651;49.138;8.900;2023-02-02T12:41:45;7.00;99.90
19037;DHT22;9651;49.138;8.900;2023-02-02T12:50:29;6.90;99.90
19037;DHT22;9651;49.138;8.900;2023-02-02T12:54:59;6.90;99.90
19037;DHT22;9651;49.138;8.900;2023-02-02T12:59:11;6.90;99.90
19037;DHT22;9651;49.138;8.900;2023-02-02T13:03:29;7.00;99.90
19037;DHT22;9651;49.138;8.900;2023-02-02T13:07:36;7.10;99.90
19037;DHT22;9651;49.138;8.900;2023-02-02T13:11:43;7.30;99.90
19037;DHT22;9651;49.138;8.900;2023-02-02T13:15:53;7.40;99.90
19037;DHT22;9651;49.138;8.900;2023-02-02T13:19:58;7.50;99.90
19037;DHT22;9651;49.138;8.900;2023-02-02T13:24:04;7.50;99.90
19037;DHT22;9651;49.138;8.900;2023-02-02T13:28:16;7.50;99.90
19037;DHT22;9651;49.138;8.900;2023-02-02T13:32:24;7.50;99.90
19037;DHT22;9651;49.138;8.900;2023-02-02T13:36:29;7.50;99.90
19037;DHT22;9651;49.138;8.900;2023-02-02T13:40:37;7.40;99.90
19037;DHT22;9651;49.138;8.900;2023-02-02T13:44:45;7.40;99.90
19037;DHT22;9651;49.138;8.900;2023-02-02T13:48:56;7.50;99.90
19037;DHT22;9651;49.138;8.900;2023-02-02T13:53:27;7.40;99.90
19037;DHT22;9651;49.138;8.900;2023-02-02T13:57:47;7.40;99.90
19037;DHT22;9651;49.138;8.900;2023-02-02T14:01:58;7.40;99.90
19037;DHT22;9651;49.138;8.900;2023-02-02T14:06:04;7.40;99.90
19037;DHT22;9651;49.138;8.900;2023-02-02T14:10:19;7.40;99.90
19037;DHT22;9651;49.138;8.900;2023-02-02T14:14:23;7.40;99.90
19037;DHT22;9651;49.138;8.900;2023-02-02T14:18:58;7.40;99.90
19037;DHT22;9651;49.138;8.900;2023-02-02T14:23:00;7.40;99.90
19037;DHT22;9651;49.138;8.900;2023-02-02T14:27:12;7.40;99.90
19037;DHT22;9651;49.138;8.900;2023-02-02T14:31:41;7.40;99.90
19037;DHT22;9651;49.138;8.900;2023-02-02T14:35:59;7.40;99.90
19037;DHT22;9651;49.138;8.900;2023-02-02T14:40:29;7.40;99.90
19037;DHT22;9651;49.138;8.900;2023-02-02T14:44:32;7.40;99.90
19037;DHT22;9651;49.138;8.900;2023-02-02T14:48:40;7.40;99.90
19037;DHT22;9651;49.138;8.900;2023-02-02T14:52:44;7.40;99.90
19037;DHT22;9651;49.138;8.900;2023-02-02T14:56:48;7.40;99.90
19037;DHT22;9651;49.138;8.900;2023-02-02T15:00:57;7.40;99.90
19037;DHT22;9651;49.138;8.900;2023-02-02T15:05:36;7.40;99.90
19037;DHT22;9651;49.138;8.900;2023-02-02T15:09:43;7.40;99.90
19037;DHT22;9651;49.138;8.900;2023-02-02T15:13:49;7.40;99.90
19037;DHT22;9651;49.138;8.900;2023-02-02T15:17:59;7.30;99.90
19037;DHT22;9651;49.138;8.900;2023-02-02T15:22:16;7.30;99.90
19037;DHT22;9651;49.138;8.900;2023-02-02T15:26:27;7.30;99.90
19037;DHT22;9651;49.138;8.900;2023-02-02T15:30:33;7.30;99.90
19037;DHT22;9651;49.138;8.900;2023-02-02T15:34:41;7.30;99.90
19037;DHT22;9651;49.138;8.900;2023-02-02T15:38:44;7.20;99.90
19037;DHT22;9651;49.138;8.900;2023-02-02T15:42:51;7.20;99.90
19037;DHT22;9651;49.138;8.900;2023-02-02T15:46:54;7.30;99.90
19037;DHT22;9651;49.138;8.900;2023-02-02T15:50:59;7.30;99.90
19037;DHT22;9651;49.138;8.900;2023-02-02T15:55:01;7.30;99.90
19037;DHT22;9651;49.138;8.900;2023-02-02T15:59:17;7.30;99.90
19037;DHT22;9651;49.138;8.900;2023-02-02T16:03:24;7.30;99.90
19037;DHT22;9651;49.138;8.900;2023-02-02T16:07:28;7.30;99.90
19037;DHT22;9651;49.138;8.900;2023-02-02T16:11:31;7.20;99.90
19037;DHT22;9651;49.138;8.900;2023-02-02T16:15:34;7.30;99.90
19037;DHT22;9651;49.138;8.900;2023-02-02T16:19:37;7.40;99.90
19037;DHT22;9651;49.138;8.900;2023-02-02T16:23:40;7.40;99.90
19037;DHT22;9651;49.138;8.900;2023-02-02T16:27:45;7.40;99.90
19037;DHT22;9651;49.138;8.900;2023-02-02T16:31:50;7.30;99.90
19037;DHT22;9651;49.138;8.900;2023-02-02T16:35:51;7.30;99.90
19037;DHT22;9651;49.138;8.900;2023-02-02T16:39:54;7.30;99.90
19037;DHT22;9651;49.138;8.900;2023-02-02T16:44:29;7.40;99.90
19037;DHT22;9651;49.138;8.900;2023-02-02T16:48:34;7.40;99.90
19037;DHT22;9651;49.138;8.900;2023-02-02T16:52:47;7.30;99.90
19037;DHT22;9651;49.138;8.900;2023-02-02T16:56:51;7.30;99.90
19037;DHT22;9651;49.138;8.900;2023-02-02T17:01:02;7.30;99.90
19037;DHT22;9651;49.138;8.900;2023-02-02T17:05:16;7.30;99.90
19037;DHT22;9651;49.138;8.900;2023-02-02T17:09:31;7.30;99.90
19037;DHT22;9651;49.138;8.900;2023-02-02T17:13:36;7.30;99.90
19037;DHT22;9651;49.138;8.900;2023-02-02T17:17:38;7.30;99.90
19037;DHT22;9651;49.138;8.900;2023-02-02T17:21:41;7.30;99.90
19037;DHT22;9651;49.138;8.900;2023-02-02T17:25:44;7.20;99.90
19037;DHT22;9651;49.138;8.900;2023-02-02T17:29:47;7.20;99.90
19037;DHT22;9651;49.138;8.900;2023-02-02T17:33:49;7.10;99.90
19037;DHT22;9651;49.138;8.900;2023-02-02T17:37:53;7.10;99.90
19037;DHT22;9651;49.138;8.900;2023-02-02T17:41:57;7.00;99.90
19037;DHT22;9651;49.138;8.900;2023-02-02T17:45:59;7.00;99.90
19037;DHT22;9651;49.138;8.900;2023-02-02T17:50:03;7.00;99.90
19037;DHT22;9651;49.138;8.900;2023-02-02T17:54:10;7.00;99.90
19037;DHT22;9651;49.138;8.900;2023-02-02T17:58:13;7.00;99.90
19037;DHT22;9651;49.138;8.900;2023-02-02T18:02:16;7.00;99.90
19037;DHT22;9651;49.138;8.900;2023-02-02T18:06:18;7.10;99.90
19037;DHT22;9651;49.138;8.900;2023-02-02T18:10:22;7.00;99.90
19037;DHT22;9651;49.138;8.900;2023-02-02T18:14:23;6.90;99.90
19037;DHT22;9651;49.138;8.900;2023-02-02T18:18:25;6.90;99.90
19037;DHT22;9651;49.138;8.900;2023-02-02T18:22:29;6.90;99.90
19037;DHT22;9651;49.138;8.900;2023-02-02T18:26:32;6.80;99.90
19037;DHT22;9651;49.138;8.900;2023-02-02T18:30:37;6.70;99.90
19037;DHT22;9651;49.138;8.900;2023-02-02T18:34:38;6.60;99.90
19037;DHT22;9651;49.138;8.900;2023-02-02T18:38:42;6.60;99.90
19037;DHT22;9651;49.138;8.900;2023-02-02T18:42:46;6.60;99.90
19037;DHT22;9651;49.138;8.900;2023-02-02T18:46:48;6.50;99.90
19037;DHT22;9651;49.138;8.900;2023-02-02T18:50:50;6.60;99.90
19037;DHT22;9651;49.138;8.900;2023-02-02T18:54:52;6.60;99.90
19037;DHT22;9651;49.138;8.900;2023-02-02T18:58:56;6.60;99.90
19037;DHT22;9651;49.138;8.900;2023-02-02T19:02:58;6.60;99.90
19037;DHT22;9651;49.138;8.900;2023-02-02T19:07:00;6.60;99.90
19037;DHT22;9651;49.138;8.900;2023-02-02T19:11:21;6.60;99.90
19037;DHT22;9651;49.138;8.900;2023-02-02T19:15:25;6.60;99.90
19037;DHT22;9651;49.138;8.900;2023-02-02T19:19:29;6.60;99.90
19037;DHT22;9651;49.138;8.900;2023-02-02T19:23:33;6.50;99.90
19037;DHT22;9651;49.138;8.900;2023-02-02T19:27:36;6.60;99.90
19037;DHT22;9651;49.138;8.900;2023-02-02T19:31:40;6.60;99.90
19037;DHT22;9651;49.138;8.900;2023-02-02T19:35:44;6.60;99.90
19037;DHT22;9651;49.138;8.900;2023-02-02T19:39:47;6.70;99.90
19037;DHT22;9651;49.138;8.900;2023-02-02T19:43:54;6.70;99.90
19037;DHT22;9651;49.138;8.900;2023-02-02T19:48:01;6.70;99.90
19037;DHT22;9651;49.138;8.900;2023-02-02T19:52:15;6.60;99.90
19037;DHT22;9651;49.138;8.900;2023-02-02T19:56:22;6.60;99.90
19037;DHT22;9651;49.138;8.900;2023-02-02T20:00:27;6.70;99.90
19037;DHT22;9651;49.138;8.900;2023-02-02T20:04:31;6.60;99.90
19037;DHT22;9651;49.138;8.900;2023-02-02T20:08:38;6.60;99.90
19037;DHT22;9651;49.138;8.900;2023-02-02T20:12:40;6.70;99.90
19037;DHT22;9651;49.138;8.900;2023-02-02T20:16:46;6.60;99.90
19037;DHT22;9651;49.138;8.900;2023-02-02T20:20:53;6.60;99.90
19037;DHT22;9651;49.138;8.900;2023-02-02T20:24:55;6.70;99.90
19037;DHT22;9651;49.138;8.900;2023-02-02T20:29:00;6.70;99.90
19037;DHT22;9651;49.138;8.900;2023-02-02T20:33:18;6.70;99.90
19037;DHT22;9651;49.138;8.900;2023-02-02T20:37:24;6.60;99.90
19037;DHT22;9651;49.138;8.900;2023-02-02T20:41:28;6.60;99.90
19037;DHT22;9651;49.138;8.900;2023-02-02T20:45:30;6.60;99.90
19037;DHT22;9651;49.138;8.900;2023-02-02T20:49:32;6.60;99.90
19037;DHT22;9651;49.138;8.900;2023-02-02T20:53:35;6.60;99.90
19037;DHT22;9651;49.138;8.900;2023-02-02T20:57:38;6.60;99.90
19037;DHT22;9651;49.138;8.900;2023-02-02T21:01:40;6.60;99.90
19037;DHT22;9651;49.138;8.900;2023-02-02T21:05:42;6.60;99.90
19037;DHT22;9651;49.138;8.900;2023-02-02T21:09:47;6.60;99.90
19037;DHT22;9651;49.138;8.900;2023-02-02T21:13:49;6.60;99.90
19037;DHT22;9651;49.138;8.900;2023-02-02T21:17:54;6.70;99.90
19037;DHT22;9651;49.138;8.900;2023-02-02T21:21:56;6.70;99.90
19037;DHT22;9651;49.138;8.900;2023-02-02T21:25:59;6.70;99.90
19037;DHT22;9651;49.138;8.900;2023-02-02T21:30:01;6.70;99.90
19037;DHT22;9651;49.138;8.900;2023-02-02T21:34:03;6.70;99.90
19037;DHT22;9651;49.138;8.900;2023-02-02T21:38:09;6.80;99.90
19037;DHT22;9651;49.138;8.900;2023-02-02T21:42:16;6.80;99.90
19037;DHT22;9651;49.138;8.900;2023-02-02T21:46:25;6.80;99.90
19037;DHT22;9651;49.138;8.900;2023-02-02T21:50:32;6.90;99.90
19037;DHT22;9651;49.138;8.900;2023-02-02T21:54:35;6.90;99.90
19037;DHT22;9651;49.138;8.900;2023-02-02T21:58:39;7.00;99.90
19037;DHT22;9651;49.138;8.900;2023-02-02T22:02:45;6.90;99.90
19037;DHT22;9651;49.138;8.900;2023-02-02T22:06:51;6.90;99.90
19037;DHT22;9651;49.138;8.900;2023-02-02T22:10:53;6.90;99.90
19037;DHT22;9651;49.138;8.900;2023-02-02T22:14:59;6.90;99.90
19037;DHT22;9651;49.138;8.900;2023-02-02T22:19:17;6.90;99.90
19037;DHT22;9651;49.138;8.900;2023-02-02T22:23:22;6.90;99.90
19037;DHT22;9651;49.138;8.900;2023-02-02T22:27:25;6.90;99.90
19037;DHT22;9651;49.138;8.900;2023-02-02T22:31:29;6.90;99.90
19037;DHT22;9651;49.138;8.900;2023-02-02T22:35:30;6.90;99.90
19037;DHT22;9651;49.138;8.900;2023-02-02T22:39:32;6.80;99.90
19037;DHT22;9651;49.138;8.900;2023-02-02T22:43:38;6.70;99.90
19037;DHT22;9651;49.138;8.900;2023-02-02T22:47:41;6.70;99.90
19037;DHT22;9651;49.138;8.900;2023-02-02T22:51:43;6.70;99.90
19037;DHT22;9651;49.138;8.900;2023-02-02T22:55:45;6.70;99.90
19037;DHT22;9651;49.138;8.900;2023-02-02T22:59:47;6.70;99.90
19037;DHT22;9651;49.138;8.900;2023-02-02T23:03:50;6.60;99.90
19037;DHT22;9651;49.138;8.900;2023-02-02T23:07:52;6.70;99.90
19037;DHT22;9651;49.138;8.900;2023-02-02T23:11:53;6.70;99.90
19037;DHT22;9651;49.138;8.900;2023-02-02T23:15:55;6.70;99.90
19037;DHT22;9651;49.138;8.900;2023-02-02T23:19:58;6.80;99.90
19037;DHT22;9651;49.138;8.900;2023-02-02T23:24:03;6.80;99.90
19037;DHT22;9651;49.138;8.900;2023-02-02T23:28:05;6.70;99.90
19037;DHT22;9651;49.138;8.900;2023-02-02T23:32:08;6.70;99.90
19037;DHT22;9651;49.138;8.900;2023-02-02T23:36:12;6.80;99.90
19037;DHT22;9651;49.138;8.900;2023-02-02T23:40:13;6.70;99.90
19037;DHT22;9651;49.138;8.900;2023-02-02T23:44:15;6.80;99.90
19037;DHT22;9651;49.138;8.900;2023-02-02T23:48:17;6.80;99.90
19037;DHT22;9651;49.138;8.900;2023-02-02T23:52:20;6.80;99.90
19037;DHT22;9651;49.138;8.900;2023-02-02T23:56:23;6.70;99.90
